Terminal Aerodrome Forecast
Issued by NWS Atlanta, GA

Home | Current Version | Previous Version | Text Only | Print | Product List | Glossary On
Versions: 1 2 3 4 5 6 7 8 9 10 11 12 13 14 15 16 17
000
FTUS42 KFFC 020500
TAFMCN
TAF
KMCN 020520Z 0206/0306 07006KT P6SM SCT015 BKN100
     FM020700 07006KT 6SM BR BKN010
     FM020900 07006KT 3SM BR VCSH OVC007
     FM021500 05006KT P6SM BKN015
     FM021700 05006KT P6SM VCSH SCT035 BKN100 PROB30 0217/0223 6SM
      TSRA BKN035CB
     FM030200 05004KT P6SM SCT025 BKN060=

USA.gov is the U.S. government's official web portal to all federal, state and local government web resources and services.